Time;durP1;ratioP1;P1;durP2;ratioP2;P2;SDS_P1;SDS_P2;PMS_P1;PMS_P2;Temp;Humidity;BMP_temperature;BMP_pressure;BME280_temperature;BME280_humidity;BME280_pressure;Samples;Min_cycle;Max_cycle;Signal;HPM_P1;HPM_P2
2022/09/13 00:00:42;;;;;;;3.03;1.40;;;11.60;99.90;;;;;;5035898;28;20401;-73
2022/09/13 00:03:09;;;;;;;1.80;1.15;;;11.50;99.90;;;;;;5035912;28;20036;-73
2022/09/13 00:05:35;;;;;;;2.55;1.13;;;11.50;99.90;;;;;;5035901;28;20041;-73
2022/09/13 00:08:01;;;;;;;2.20;1.35;;;11.50;99.90;;;;;;5036042;28;20076;-73
2022/09/13 00:10:27;;;;;;;2.95;1.10;;;11.40;99.90;;;;;;5035663;28;20034;-73
2022/09/13 00:12:53;;;;;;;2.97;1.63;;;11.40;99.90;;;;;;5035768;28;20105;-73
2022/09/13 00:15:19;;;;;;;2.15;1.17;;;11.40;99.90;;;;;;5035705;28;20540;-73
2022/09/13 00:17:45;;;;;;;1.67;1.20;;;11.30;99.90;;;;;;5035893;28;20052;-73
2022/09/13 00:20:12;;;;;;;3.67;1.27;;;11.30;99.90;;;;;;5035510;28;20014;-73
2022/09/13 00:22:37;;;;;;;3.92;1.40;;;11.30;99.90;;;;;;5035601;28;20087;-73
2022/09/13 00:25:04;;;;;;;2.97;1.48;;;11.20;99.90;;;;;;5034679;28;20413;-73
2022/09/13 00:27:35;;;;;;;5.80;1.35;;;11.30;99.90;;;;;;5035427;28;20026;-73
2022/09/13 00:30:02;;;;;;;2.08;1.30;;;11.20;99.90;;;;;;5035986;28;20503;-73
2022/09/13 00:32:28;;;;;;;2.67;1.27;;;11.20;99.90;;;;;;5035293;28;20474;-73
2022/09/13 00:34:53;;;;;;;5.10;1.42;;;11.20;99.90;;;;;;5035844;28;20145;-73
2022/09/13 00:37:19;;;;;;;3.45;1.40;;;11.10;99.90;;;;;;5035782;28;20470;-73
2022/09/13 00:39:45;;;;;;;1.88;1.10;;;11.10;99.90;;;;;;5035271;28;20053;-73
2022/09/13 00:42:12;;;;;;;2.83;1.30;;;11.10;99.90;;;;;;5035388;28;20436;-73
2022/09/13 00:45:01;;;;;;;3.40;1.30;;;11.00;99.90;;;;;;5035140;28;20100;-73
2022/09/13 00:47:57;;;;;;;2.08;1.40;;;11.00;99.90;;;;;;5035112;28;20057;-73
2022/09/13 00:50:44;;;;;;;6.18;1.80;;;10.90;99.90;;;;;;5034438;28;20037;-73
2022/09/13 00:53:24;;;;;;;2.78;1.50;;;10.90;99.90;;;;;;5034971;28;20028;-73
2022/09/13 00:55:56;;;;;;;3.28;1.50;;;10.90;99.90;;;;;;5035258;28;20378;-73
2022/09/13 00:58:28;;;;;;;4.82;1.70;;;10.90;99.90;;;;;;5034927;28;20027;-73
2022/09/13 01:00:58;;;;;;;4.90;1.52;;;10.90;99.90;;;;;;5034664;28;20030;-73
2022/09/13 01:03:27;;;;;;;2.80;1.63;;;10.80;99.90;;;;;;5035144;28;20095;-73
2022/09/13 01:05:58;;;;;;;4.70;1.30;;;10.80;99.90;;;;;;5034404;28;20025;-73
2022/09/13 01:08:25;;;;;;;4.47;1.58;;;10.70;99.90;;;;;;5034800;28;20097;-72
2022/09/13 01:10:52;;;;;;;3.65;1.25;;;10.70;99.90;;;;;;5016929;28;20395;-72
2022/09/13 01:13:24;;;;;;;5.30;1.40;;;10.70;99.90;;;;;;5034846;28;20051;-72
2022/09/13 01:15:50;;;;;;;2.25;1.30;;;10.60;99.90;;;;;;5035111;28;20469;-72
2022/09/13 01:18:16;;;;;;;5.55;1.45;;;10.60;99.90;;;;;;5034508;28;20029;-73
2022/09/13 01:21:05;;;;;;;3.55;1.48;;;10.60;99.90;;;;;;5034791;28;20389;-73
2022/09/13 01:23:42;;;;;;;4.72;1.45;;;10.50;99.90;;;;;;5034455;28;20025;-73
2022/09/13 01:26:08;;;;;;;2.50;1.45;;;10.50;99.90;;;;;;5034655;28;20480;-73
2022/09/13 01:28:57;;;;;;;3.33;1.30;;;10.50;99.90;;;;;;5034854;28;20061;-74
2022/09/13 01:31:34;;;;;;;2.47;1.40;;;10.40;99.90;;;;;;5034410;28;20025;-74
2022/09/13 01:34:06;;;;;;;3.42;1.40;;;10.40;99.90;;;;;;5034312;28;20024;-75
2022/09/13 01:36:50;;;;;;;7.28;1.48;;;10.40;99.90;;;;;;5034256;28;20025;-75
2022/09/13 01:39:39;;;;;;;2.65;1.20;;;10.40;99.90;;;;;;5034712;28;20079;-75
2022/09/13 01:42:27;;;;;;;2.05;1.10;;;10.30;99.90;;;;;;5034069;28;20025;-74
2022/09/13 01:45:32;;;;;;;3.85;1.30;;;10.30;99.90;;;;;;5034829;28;20496;-75
2022/09/13 01:48:26;;;;;;;4.65;1.40;;;10.30;99.90;;;;;;5013459;28;20088;-75
2022/09/13 01:51:04;;;;;;;2.50;1.30;;;10.20;99.90;;;;;;5018242;28;20073;-74
2022/09/13 01:53:48;;;;;;;4.47;1.27;;;10.10;99.90;;;;;;5034581;28;20369;-75
2022/09/13 01:56:35;;;;;;;3.50;1.10;;;10.10;99.90;;;;;;5037002;28;20032;-74
2022/09/13 01:59:16;;;;;;;2.45;1.52;;;10.00;99.90;;;;;;5032906;28;20067;-75
2022/09/13 02:01:56;;;;;;;4.28;1.70;;;10.00;99.90;;;;;;5034041;28;20041;-75
2022/09/13 02:04:26;;;;;;;2.55;1.25;;;10.00;99.90;;;;;;5034460;28;20025;-75
2022/09/13 02:07:02;;;;;;;6.72;1.33;;;9.90;99.90;;;;;;5032585;28;20026;-74
2022/09/13 02:09:33;;;;;;;5.95;1.60;;;9.90;99.90;;;;;;5032518;28;20473;-75
2022/09/13 02:12:06;;;;;;;1.80;1.15;;;9.80;99.90;;;;;;5033940;28;20083;-74
2022/09/13 02:14:37;;;;;;;5.55;1.55;;;9.80;99.90;;;;;;5033978;28;20040;-75
2022/09/13 02:17:19;;;;;;;3.22;1.40;;;9.70;99.90;;;;;;5033535;28;20033;-75
2022/09/13 02:19:57;;;;;;;4.15;1.35;;;9.70;99.90;;;;;;5033464;28;20025;-75
2022/09/13 02:22:31;;;;;;;1.90;1.20;;;9.70;99.90;;;;;;5033596;28;20028;-74
2022/09/13 02:25:01;;;;;;;3.45;1.60;;;9.70;99.90;;;;;;5033596;28;20362;-75
2022/09/13 02:27:32;;;;;;;2.42;1.30;;;9.60;99.90;;;;;;5033866;28;20030;-75
2022/09/13 02:30:03;;;;;;;3.05;1.10;;;9.60;99.90;;;;;;5033430;28;20036;-75
2022/09/13 02:32:48;;;;;;;2.17;1.30;;;9.60;99.90;;;;;;5033833;28;20022;-74
2022/09/13 02:35:23;;;;;;;2.20;1.20;;;9.60;99.90;;;;;;5033967;28;20022;-75
2022/09/13 02:38:04;;;;;;;3.25;1.27;;;9.60;99.90;;;;;;5033843;28;20028;-75
2022/09/13 02:40:45;;;;;;;2.30;1.10;;;9.60;99.90;;;;;;5033945;28;20017;-74
2022/09/13 02:43:21;;;;;;;5.32;1.50;;;9.50;99.90;;;;;;5033580;28;20035;-75
2022/09/13 02:45:56;;;;;;;3.35;1.23;;;9.50;99.90;;;;;;5033802;28;20033;-75
2022/09/13 02:48:54;;;;;;;1.77;1.10;;;9.50;99.90;;;;;;5033866;28;20025;-75
2022/09/13 02:51:19;;;;;;;3.30;1.35;;;9.50;99.90;;;;;;5033002;28;20486;-74
2022/09/13 02:53:54;;;;;;;4.32;1.40;;;9.40;99.90;;;;;;5033533;28;20025;-75
2022/09/13 02:56:27;;;;;;;1.95;1.27;;;9.50;99.90;;;;;;5033177;28;20018;-75
2022/09/13 02:59:12;;;;;;;1.98;1.25;;;9.40;99.90;;;;;;5033484;28;20100;-75
2022/09/13 03:01:40;;;;;;;2.40;1.50;;;9.40;99.90;;;;;;5031800;28;20108;-75
2022/09/13 03:04:06;;;;;;;1.92;1.10;;;9.40;99.90;;;;;;5033313;28;20030;-74
2022/09/13 03:06:32;;;;;;;3.85;1.48;;;9.30;99.90;;;;;;5033092;28;20033;-74
2022/09/13 03:09:04;;;;;;;2.20;1.00;;;9.30;99.90;;;;;;5033097;28;20033;-74
2022/09/13 03:11:35;;;;;;;1.70;0.98;;;9.30;99.90;;;;;;5033311;28;20390;-74
2022/09/13 03:14:17;;;;;;;2.17;1.23;;;9.30;99.90;;;;;;5033024;28;20022;-74
2022/09/13 03:17:01;;;;;;;2.50;1.05;;;9.30;99.90;;;;;;5033166;28;20022;-75
2022/09/13 03:19:27;;;;;;;2.38;1.15;;;9.30;99.90;;;;;;5033331;28;20024;-75
2022/09/13 03:22:01;;;;;;;1.67;0.98;;;9.30;99.90;;;;;;5032909;28;20477;-74
2022/09/13 03:24:50;;;;;;;2.03;1.00;;;9.20;99.90;;;;;;5033264;28;20025;-74
2022/09/13 03:27:16;;;;;;;2.38;1.30;;;9.20;99.90;;;;;;5033211;28;20032;-75
2022/09/13 03:29:47;;;;;;;2.35;1.30;;;9.20;99.90;;;;;;5034725;28;20029;-75
2022/09/13 03:32:32;;;;;;;2.10;1.17;;;9.10;99.90;;;;;;5036461;28;20048;-73
2022/09/13 03:35:08;;;;;;;2.33;1.20;;;9.10;99.90;;;;;;5035274;28;20041;-74
2022/09/13 03:37:52;;;;;;;2.22;1.20;;;9.00;99.90;;;;;;5036781;28;20358;-75
2022/09/13 03:40:43;;;;;;;3.25;1.42;;;9.00;99.90;;;;;;5036395;28;20025;-73
2022/09/13 03:43:34;;;;;;;2.22;1.20;;;9.00;99.90;;;;;;5028124;28;20029;-74
2022/09/13 03:46:24;;;;;;;2.53;1.10;;;9.00;99.90;;;;;;5036391;28;20431;-74
2022/09/13 03:48:51;;;;;;;1.77;1.00;;;9.00;99.90;;;;;;5036429;28;20022;-74
2022/09/13 03:51:17;;;;;;;2.72;1.40;;;9.00;99.90;;;;;;5036156;28;20033;-74
2022/09/13 03:53:55;;;;;;;2.67;1.35;;;9.00;99.90;;;;;;5036265;28;20037;-74
2022/09/13 03:56:21;;;;;;;2.53;1.13;;;8.90;99.90;;;;;;5036211;28;20014;-74
2022/09/13 03:58:47;;;;;;;2.15;0.93;;;8.90;99.90;;;;;;5036665;28;20022;-74
2022/09/13 04:01:15;;;;;;;2.40;1.38;;;8.90;99.90;;;;;;5036047;28;20032;-74
2022/09/13 04:03:40;;;;;;;2.55;1.38;;;8.80;99.90;;;;;;5034847;28;20482;-74
2022/09/13 04:06:07;;;;;;;2.00;1.10;;;8.80;99.90;;;;;;5036142;28;20047;-74
2022/09/13 04:08:33;;;;;;;2.63;1.10;;;8.80;99.90;;;;;;5036133;28;20042;-74
2022/09/13 04:11:00;;;;;;;2.67;1.50;;;8.70;99.90;;;;;;5035883;28;20037;-73
2022/09/13 04:13:26;;;;;;;2.60;1.42;;;8.60;99.90;;;;;;5035869;28;20044;-74
2022/09/13 04:15:53;;;;;;;2.35;1.13;;;8.40;99.90;;;;;;5036064;28;20026;-74
2022/09/13 04:18:19;;;;;;;2.28;1.15;;;8.40;99.90;;;;;;5035188;28;20018;-74
2022/09/13 04:20:56;;;;;;;4.25;1.20;;;8.40;99.90;;;;;;5034390;28;20030;-73
2022/09/13 04:23:23;;;;;;;3.25;0.98;;;8.40;99.90;;;;;;5034397;28;20059;-74
2022/09/13 04:25:50;;;;;;;2.40;1.00;;;8.40;99.90;;;;;;5035862;28;20033;-73
2022/09/13 04:28:19;;;;;;;2.47;1.20;;;8.40;99.90;;;;;;5034240;28;20063;-73
2022/09/13 04:30:46;;;;;;;3.05;1.02;;;8.50;99.90;;;;;;5034214;28;20033;-74
2022/09/13 04:33:12;;;;;;;4.30;1.15;;;8.50;99.90;;;;;;5035969;28;20600;-73
2022/09/13 04:35:38;;;;;;;2.25;1.20;;;8.50;99.90;;;;;;5034308;28;20482;-74
2022/09/13 04:38:05;;;;;;;3.45;1.23;;;8.50;99.90;;;;;;5035516;28;20099;-73
2022/09/13 04:40:31;;;;;;;2.03;1.30;;;8.40;99.90;;;;;;5035168;28;20485;-73
2022/09/13 04:42:56;;;;;;;4.72;1.42;;;8.40;99.90;;;;;;5034869;28;20034;-73
2022/09/13 04:45:23;;;;;;;3.35;1.65;;;8.50;99.90;;;;;;5034441;28;20112;-73
2022/09/13 04:47:52;;;;;;;3.08;1.35;;;8.40;99.90;;;;;;5034079;28;20029;-74
2022/09/13 04:50:19;;;;;;;2.95;1.30;;;8.50;99.90;;;;;;5034986;28;20029;-73
2022/09/13 04:52:45;;;;;;;3.53;1.38;;;8.50;99.90;;;;;;5035117;28;20034;-73
2022/09/13 04:55:12;;;;;;;5.20;2.15;;;8.50;99.90;;;;;;5035011;28;20021;-73
2022/09/13 04:57:37;;;;;;;4.00;1.70;;;8.50;99.90;;;;;;5033717;28;20036;-73
2022/09/13 05:00:04;;;;;;;2.65;1.35;;;8.50;99.90;;;;;;5035210;28;20026;-73
2022/09/13 05:02:30;;;;;;;3.08;1.50;;;8.50;99.90;;;;;;5034827;28;20087;-73
2022/09/13 05:04:55;;;;;;;3.63;1.55;;;8.50;99.90;;;;;;5034873;28;20494;-73
2022/09/13 05:07:21;;;;;;;2.63;1.40;;;8.40;99.90;;;;;;5035618;28;20036;-73
2022/09/13 05:09:47;;;;;;;4.32;1.42;;;8.40;99.90;;;;;;5034768;28;20371;-73
2022/09/13 05:12:12;;;;;;;3.35;1.55;;;8.40;99.90;;;;;;5034619;28;20033;-73
2022/09/13 05:14:38;;;;;;;3.42;1.70;;;8.40;99.90;;;;;;5033437;28;20036;-73
2022/09/13 05:17:04;;;;;;;3.63;1.40;;;8.40;99.90;;;;;;5033288;28;20030;-74
2022/09/13 05:19:30;;;;;;;3.03;1.50;;;8.40;99.90;;;;;;5034901;28;20609;-74
2022/09/13 05:21:55;;;;;;;5.60;1.88;;;8.40;99.90;;;;;;5034525;28;20068;-73
2022/09/13 05:24:21;;;;;;;4.65;1.75;;;8.40;99.90;;;;;;5034402;28;20057;-73
2022/09/13 05:26:46;;;;;;;4.00;1.67;;;8.40;99.90;;;;;;5034372;28;20025;-73
2022/09/13 05:29:12;;;;;;;4.93;1.65;;;8.40;99.90;;;;;;5034610;28;20037;-74
2022/09/13 05:31:39;;;;;;;7.00;2.03;;;8.50;99.90;;;;;;5034404;28;20034;-73
2022/09/13 05:34:09;;;;;;;4.97;1.67;;;8.50;99.90;;;;;;5034531;28;20523;-74
2022/09/13 05:36:35;;;;;;;4.63;1.70;;;8.50;99.90;;;;;;5032919;28;20029;-74
2022/09/13 05:39:03;;;;;;;5.68;1.50;;;8.50;99.90;;;;;;5034182;28;20021;-73
2022/09/13 05:41:29;;;;;;;3.40;1.52;;;8.50;99.90;;;;;;5034030;28;20070;-73
2022/09/13 05:43:54;;;;;;;3.35;1.73;;;8.50;99.90;;;;;;5034336;28;20029;-73
2022/09/13 05:46:21;;;;;;;2.58;1.65;;;8.60;99.90;;;;;;5034037;28;20079;-74
2022/09/13 05:48:47;;;;;;;3.63;1.60;;;8.60;99.90;;;;;;5032793;28;20029;-74
2022/09/13 05:51:18;;;;;;;2.60;1.55;;;8.60;99.90;;;;;;5032633;28;20053;-73
2022/09/13 05:53:49;;;;;;;2.85;1.80;;;8.60;99.90;;;;;;5033105;28;20070;-73
2022/09/13 05:56:18;;;;;;;4.38;1.70;;;8.70;99.90;;;;;;5034148;28;20098;-74
2022/09/13 05:58:46;;;;;;;4.38;2.50;;;8.70;99.90;;;;;;5034181;28;20026;-73
2022/09/13 06:01:13;;;;;;;2.75;1.63;;;8.80;99.90;;;;;;5033650;28;20067;-74
2022/09/13 06:03:39;;;;;;;2.63;1.60;;;8.80;99.90;;;;;;5034020;28;20471;-74
2022/09/13 06:06:06;;;;;;;3.35;1.95;;;8.80;99.90;;;;;;5034099;28;20108;-74
2022/09/13 06:08:33;;;;;;;4.18;2.17;;;8.90;99.90;;;;;;5033851;28;20028;-74
2022/09/13 06:11:02;;;;;;;6.10;2.30;;;9.00;99.90;;;;;;5033309;28;20389;-74
2022/09/13 06:13:29;;;;;;;5.90;1.95;;;9.00;99.90;;;;;;5033580;28;20029;-74
2022/09/13 06:15:56;;;;;;;4.18;2.13;;;9.00;99.90;;;;;;5033835;28;20056;-74
2022/09/13 06:18:23;;;;;;;3.35;2.08;;;9.10;99.90;;;;;;5033625;28;20040;-75
2022/09/13 06:20:49;;;;;;;3.58;1.77;;;9.20;99.90;;;;;;5033471;28;20393;-75
2022/09/13 06:23:15;;;;;;;2.53;1.73;;;9.30;99.90;;;;;;5033571;28;20030;-75
2022/09/13 06:25:42;;;;;;;4.18;2.05;;;9.30;99.90;;;;;;5033795;28;20474;-74
2022/09/13 06:28:09;;;;;;;4.50;1.70;;;9.40;99.90;;;;;;5033710;28;20037;-75
2022/09/13 06:30:35;;;;;;;8.20;2.10;;;9.50;99.90;;;;;;5033361;28;20393;-74
2022/09/13 06:33:01;;;;;;;5.78;1.90;;;9.50;99.90;;;;;;5033352;28;20418;-75
2022/09/13 06:35:26;;;;;;;3.00;1.77;;;9.50;99.90;;;;;;5033895;28;20072;-75
2022/09/13 06:37:57;;;;;;;3.70;1.80;;;9.60;99.90;;;;;;5032710;28;20022;-75
2022/09/13 06:40:23;;;;;;;2.20;1.40;;;9.70;99.90;;;;;;5033232;28;20048;-74
2022/09/13 06:42:49;;;;;;;7.47;2.35;;;9.70;99.90;;;;;;5032131;28;20083;-75
2022/09/13 06:45:15;;;;;;;4.25;2.13;;;9.80;99.90;;;;;;5033493;28;20437;-74
2022/09/13 06:47:41;;;;;;;4.97;1.75;;;9.80;99.90;;;;;;5033854;28;20407;-75
2022/09/13 06:50:08;;;;;;;6.15;1.70;;;9.90;99.90;;;;;;5033259;28;20072;-75
2022/09/13 06:52:34;;;;;;;3.50;1.83;;;10.00;99.90;;;;;;5033688;28;20032;-75
2022/09/13 06:55:00;;;;;;;8.70;1.42;;;10.00;99.90;;;;;;5031938;28;20025;-74
2022/09/13 06:57:28;;;;;;;6.40;1.80;;;10.10;99.90;;;;;;5033503;28;20026;-75
2022/09/13 06:59:54;;;;;;;4.47;1.38;;;10.20;99.90;;;;;;5033164;28;20037;-75
2022/09/13 07:02:19;;;;;;;5.68;1.80;;;10.20;99.90;;;;;;5031927;28;20041;-75
2022/09/13 07:04:45;;;;;;;3.42;1.65;;;10.30;99.90;;;;;;5034611;28;20033;-75
2022/09/13 07:07:11;;;;;;;3.80;2.15;;;10.40;99.90;;;;;;5037080;28;20478;-74
2022/09/13 07:09:37;;;;;;;4.47;2.20;;;10.50;99.90;;;;;;5036924;28;20026;-75
2022/09/13 07:12:06;;;;;;;3.70;2.17;;;10.50;99.90;;;;;;5035897;28;20034;-75
2022/09/13 07:14:31;;;;;;;4.88;2.60;;;10.70;99.90;;;;;;5036974;28;20075;-75
2022/09/13 07:16:57;;;;;;;6.32;2.90;;;10.70;99.90;;;;;;5035594;28;20432;-75
2022/09/13 07:19:25;;;;;;;5.63;3.05;;;10.90;99.90;;;;;;5035617;28;20025;-75
2022/09/13 07:21:52;;;;;;;5.75;3.30;;;10.90;99.90;;;;;;5036841;28;20025;-75
2022/09/13 07:24:19;;;;;;;4.30;3.28;;;11.00;99.90;;;;;;5036718;28;20060;-75
2022/09/13 07:26:45;;;;;;;4.55;2.75;;;11.10;99.90;;;;;;5019079;28;20088;-75
2022/09/13 07:29:15;;;;;;;5.85;4.57;;;11.20;99.90;;;;;;5037115;28;20041;-74
2022/09/13 07:31:42;;;;;;;9.10;5.95;;;11.30;99.90;;;;;;5036415;28;20036;-73
2022/09/13 07:34:18;;;;;;;11.35;6.57;;;11.40;99.90;;;;;;5036812;28;20021;-74
2022/09/13 07:36:45;;;;;;;9.70;7.00;;;11.60;99.90;;;;;;5036353;28;20029;-73
2022/09/13 07:39:12;;;;;;;10.82;7.00;;;11.70;99.90;;;;;;5036477;28;20028;-74
2022/09/13 07:41:39;;;;;;;11.85;7.22;;;11.80;99.90;;;;;;5036042;28;20025;-74
2022/09/13 07:44:06;;;;;;;12.00;6.78;;;11.90;99.90;;;;;;5034808;28;20091;-74
2022/09/13 07:46:38;;;;;;;13.18;7.10;;;12.10;99.90;;;;;;5036032;28;20021;-74
2022/09/13 07:49:04;;;;;;;10.32;7.63;;;12.20;99.90;;;;;;5036203;28;20129;-73
2022/09/13 07:51:32;;;;;;;7.95;5.90;;;12.30;99.90;;;;;;5035987;28;20113;-74
2022/09/13 07:54:01;;;;;;;9.98;7.15;;;12.40;99.90;;;;;;5034597;28;20033;-73
2022/09/13 07:56:34;;;;;;;9.23;7.18;;;12.60;99.90;;;;;;5035965;28;20037;-74
2022/09/13 07:59:05;;;;;;;8.82;6.50;;;12.70;99.90;;;;;;5036150;28;20381;-73
2022/09/13 08:01:39;;;;;;;7.25;5.32;;;12.90;99.90;;;;;;5036153;28;20038;-74
2022/09/13 08:04:08;;;;;;;9.88;5.20;;;13.10;99.90;;;;;;5036256;28;20048;-74
2022/09/13 08:06:36;;;;;;;6.18;3.85;;;13.20;99.90;;;;;;5035864;28;20030;-74
2022/09/13 08:09:04;;;;;;;3.10;1.88;;;13.40;99.90;;;;;;5035868;28;20029;-74
2022/09/13 08:11:35;;;;;;;3.20;1.65;;;13.50;99.90;;;;;;5035682;28;20021;-74
2022/09/13 08:14:01;;;;;;;4.13;1.98;;;13.70;99.90;;;;;;5035817;28;20025;-75
2022/09/13 08:16:28;;;;;;;3.38;1.88;;;13.80;99.90;;;;;;5034918;28;20026;-74
2022/09/13 08:18:56;;;;;;;2.65;1.67;;;14.00;99.90;;;;;;5035729;28;20100;-75
2022/09/13 08:21:23;;;;;;;2.70;1.60;;;14.10;99.90;;;;;;5035515;28;20040;-74
2022/09/13 08:23:49;;;;;;;2.65;1.52;;;14.30;99.90;;;;;;5035906;28;20048;-75
2022/09/13 08:26:16;;;;;;;4.72;1.58;;;14.40;99.90;;;;;;5034422;28;20474;-74
2022/09/13 08:28:42;;;;;;;3.10;1.70;;;14.60;99.90;;;;;;5035531;28;20029;-75
2022/09/13 08:31:14;;;;;;;2.80;1.35;;;14.70;99.90;;;;;;5034485;28;20367;-74
2022/09/13 08:33:47;;;;;;;3.45;1.80;;;14.90;99.90;;;;;;5035751;28;20026;-74
2022/09/13 08:36:13;;;;;;;3.80;1.52;;;15.00;99.90;;;;;;5035425;28;20021;-74
2022/09/13 08:38:39;;;;;;;4.13;1.67;;;15.10;99.90;;;;;;5035329;28;20033;-74
2022/09/13 08:41:21;;;;;;;3.63;1.90;;;15.30;99.90;;;;;;5035196;28;20056;-74
2022/09/13 08:44:16;;;;;;;2.25;1.58;;;15.40;99.90;;;;;;5035569;28;20061;-74
2022/09/13 08:46:44;;;;;;;2.40;1.60;;;15.50;99.90;;;;;;5034787;28;20445;-75
2022/09/13 08:49:27;;;;;;;2.28;1.52;;;15.60;99.90;;;;;;5035127;28;20029;-75
2022/09/13 08:51:58;;;;;;;4.13;1.83;;;15.70;99.90;;;;;;5035001;28;20083;-75
2022/09/13 08:54:23;;;;;;;2.83;1.60;;;15.90;99.90;;;;;;5035174;28;20100;-75
2022/09/13 08:57:23;;;;;;;2.95;1.73;;;16.10;99.90;;;;;;5034987;28;20076;-75
2022/09/13 09:00:35;;;;;;;2.58;1.42;;;16.20;99.90;;;;;;5034565;28;20428;-75
2022/09/13 09:03:12;;;;;;;2.92;1.50;;;16.40;99.90;;;;;;5034970;28;20029;-75
2022/09/13 09:05:47;;;;;;;2.78;1.20;;;16.60;99.90;;;;;;5034847;28;20120;-75
2022/09/13 09:08:41;;;;;;;2.00;1.05;;;16.80;99.90;;;;;;5034784;28;20389;-75
2022/09/13 09:11:19;;;;;;;1.63;1.02;;;16.90;99.90;;;;;;5034592;28;20029;-75
2022/09/13 09:13:58;;;;;;;2.17;1.20;;;17.10;99.90;;;;;;5035293;28;20018;-74
2022/09/13 09:16:45;;;;;;;2.95;0.93;;;17.20;99.90;;;;;;5034683;28;20490;-75
2022/09/13 09:19:26;;;;;;;2.03;1.10;;;17.30;99.90;;;;;;5034638;28;20017;-75
2022/09/13 09:21:52;;;;;;;2.30;0.85;;;17.50;99.90;;;;;;5034845;28;20110;-75
2022/09/13 09:24:24;;;;;;;1.85;1.10;;;17.60;99.90;;;;;;5034740;28;20111;-75
2022/09/13 09:26:54;;;;;;;1.60;0.80;;;17.70;99.90;;;;;;5034646;28;20385;-75
2022/09/13 09:29:31;;;;;;;1.50;0.80;;;17.90;99.90;;;;;;5034768;28;20025;-75
2022/09/13 09:32:09;;;;;;;1.67;0.90;;;18.10;99.90;;;;;;5034351;28;20068;-75
2022/09/13 09:35:05;;;;;;;1.13;0.68;;;18.20;99.90;;;;;;5034307;28;20055;-75
2022/09/13 09:37:33;;;;;;;1.60;0.80;;;18.40;99.90;;;;;;5034306;28;20030;-75
2022/09/13 09:40:03;;;;;;;1.67;0.95;;;18.50;99.90;;;;;;5034239;28;20540;-75
2022/09/13 09:42:33;;;;;;;4.20;1.33;;;18.70;99.90;;;;;;5034054;28;20025;-75
2022/09/13 09:45:04;;;;;;;1.67;1.08;;;18.80;99.90;;;;;;5034206;28;20021;-75
2022/09/13 09:47:38;;;;;;;;;;;18.90;99.50;;;;;;5033760;28;20370;-75
2022/09/13 09:50:17;;;;;;;3.05;1.00;;;19.10;99.20;;;;;;5034383;28;19913;-75
2022/09/13 09:53:17;;;;;;;5.18;1.17;;;19.20;99.90;;;;;;5034016;28;20409;-75
2022/09/13 09:56:11;;;;;;;1.55;1.00;;;19.40;99.90;;;;;;5034255;28;20021;-75
2022/09/13 09:58:37;;;;;;;1.90;1.10;;;19.60;99.90;;;;;;5034296;28;20025;-75
2022/09/13 10:01:04;;;;;;;1.67;0.80;;;19.70;99.50;;;;;;5033636;28;20025;-75
2022/09/13 10:03:32;;;;;;;1.83;1.08;;;19.80;99.30;;;;;;5034189;28;20466;-75
2022/09/13 10:06:18;;;;;;;3.25;1.10;;;19.90;98.70;;;;;;5033754;28;20025;-75
2022/09/13 10:08:54;;;;;;;2.88;1.10;;;19.90;99.90;;;;;;5034047;28;20029;-75
2022/09/13 10:11:21;;;;;;;1.73;0.90;;;20.10;98.40;;;;;;5032285;28;20029;-75
2022/09/13 10:14:00;;;;;;;2.28;1.00;;;20.20;98.20;;;;;;5033929;28;20018;-75
2022/09/13 10:16:28;;;;;;;2.35;1.25;;;20.30;97.90;;;;;;5033627;28;20026;-76
2022/09/13 10:19:24;;;;;;;3.33;1.20;;;20.40;97.40;;;;;;5033603;28;20052;-75
2022/09/13 10:22:01;;;;;;;1.98;0.98;;;20.40;97.70;;;;;;5033747;28;20022;-75
2022/09/13 10:24:28;;;;;;;2.40;0.93;;;20.40;97.90;;;;;;5033494;28;20485;-75
2022/09/13 10:26:54;;;;;;;2.05;1.17;;;20.50;97.80;;;;;;5032260;28;20029;-75
2022/09/13 10:29:21;;;;;;;2.15;1.10;;;20.60;97.40;;;;;;5033735;28;20036;-75
2022/09/13 10:31:52;;;;;;;2.00;1.15;;;20.60;97.80;;;;;;5033220;28;20509;-75
2022/09/13 10:34:36;;;;;;;1.83;0.90;;;20.70;97.80;;;;;;5033764;28;20026;-72
2022/09/13 10:37:18;;;;;;;2.25;1.02;;;20.70;97.70;;;;;;5033716;28;20026;-75
2022/09/13 10:39:56;;;;;;;2.33;1.20;;;20.70;97.60;;;;;;5035546;28;20021;-75
2022/09/13 10:42:25;;;;;;;4.05;1.10;;;20.70;97.30;;;;;;5039916;28;20021;-75
2022/09/13 10:44:56;;;;;;;5.32;1.10;;;20.70;97.40;;;;;;5039888;28;20025;-75
2022/09/13 10:47:48;;;;;;;2.25;1.25;;;20.90;97.80;;;;;;5039900;28;20091;-75
2022/09/13 10:50:20;;;;;;;1.70;1.10;;;21.00;98.50;;;;;;5039995;28;20030;-75
2022/09/13 10:52:54;;;;;;;3.17;1.17;;;21.20;96.20;;;;;;5040034;28;20378;-75
2022/09/13 10:55:31;;;;;;;3.85;1.30;;;21.30;96.60;;;;;;5039864;28;20025;-75
2022/09/13 10:58:06;;;;;;;4.85;1.27;;;21.40;96.30;;;;;;5039784;28;20030;-75
2022/09/13 11:00:50;;;;;;;2.35;1.10;;;21.50;97.70;;;;;;5039853;28;20061;-75
2022/09/13 11:03:38;;;;;;;5.63;1.73;;;21.70;97.20;;;;;;5039746;28;20080;-75
2022/09/13 11:06:24;;;;;;;2.72;1.45;;;21.90;96.90;;;;;;5039788;28;20032;-75
2022/09/13 11:09:05;;;;;;;1.98;1.48;;;22.00;96.20;;;;;;5039744;28;20033;-74
2022/09/13 11:12:06;;;;;;;2.78;1.23;;;22.10;95.60;;;;;;5039607;28;20474;-75
2022/09/13 11:14:44;;;;;;;1.45;1.00;;;22.10;95.50;;;;;;5032926;28;20466;-75
2022/09/13 11:17:19;;;;;;;3.15;1.30;;;22.20;94.50;;;;;;5047796;28;20009;-75
2022/09/13 11:20:12;;;;;;;2.17;1.13;;;22.30;94.10;;;;;;5058054;28;20083;-75
2022/09/13 11:22:46;;;;;;;2.75;1.20;;;22.50;93.70;;;;;;5057564;28;20115;-72
2022/09/13 11:25:29;;;;;;;1.35;0.85;;;22.50;93.00;;;;;;5057496;28;20477;-73
2022/09/13 11:28:17;;;;;;;4.10;1.02;;;22.60;94.40;;;;;;5056144;28;20080;-73
2022/09/13 11:31:08;;;;;;;1.48;0.90;;;22.70;94.90;;;;;;5059462;28;20100;-73
2022/09/13 11:33:51;;;;;;;1.95;1.10;;;22.90;93.20;;;;;;5059779;28;20029;-75
2022/09/13 11:36:19;;;;;;;1.45;0.90;;;23.10;93.00;;;;;;5060245;28;20021;-75
2022/09/13 11:38:53;;;;;;;2.35;0.90;;;23.20;92.00;;;;;;5059861;28;20035;-76
2022/09/13 11:41:26;;;;;;;1.63;0.70;;;23.30;92.70;;;;;;5059983;28;20025;-75
2022/09/13 11:44:22;;;;;;;1.73;0.90;;;23.40;89.30;;;;;;5059609;28;20021;-74
2022/09/13 11:47:04;;;;;;;5.40;0.93;;;23.40;87.80;;;;;;5059599;28;20044;-76
2022/09/13 11:49:58;;;;;;;1.45;0.80;;;23.40;88.20;;;;;;5059331;28;20025;-75
2022/09/13 11:52:42;;;;;;;2.05;1.00;;;23.50;87.00;;;;;;5054785;28;20025;-75
2022/09/13 11:55:25;;;;;;;2.80;0.93;;;23.60;91.10;;;;;;5056053;28;20021;-75
2022/09/13 11:58:20;;;;;;;1.58;0.88;;;23.80;90.80;;;;;;5056658;28;20035;-74
2022/09/13 12:01:11;;;;;;;2.30;1.05;;;23.90;86.30;;;;;;5047446;28;20540;-75
2022/09/13 12:03:49;;;;;;;1.63;0.90;;;24.00;89.40;;;;;;5033390;28;20075;-74
2022/09/13 12:06:22;;;;;;;2.72;1.00;;;23.90;86.40;;;;;;5036313;28;20128;-74
2022/09/13 12:09:15;;;;;;;2.50;0.75;;;23.90;85.80;;;;;;5035875;28;20032;-73
2022/09/13 12:12:09;;;;;;;2.70;0.90;;;24.00;87.30;;;;;;5035740;28;20129;-73
2022/09/13 12:15:01;;;;;;;2.67;1.20;;;24.20;87.40;;;;;;5036112;28;20076;-74
2022/09/13 12:17:36;;;;;;;1.70;1.10;;;24.40;84.50;;;;;;5035077;28;20033;-74
2022/09/13 12:20:04;;;;;;;2.60;1.20;;;24.60;87.40;;;;;;5036038;28;20497;-74
2022/09/13 12:22:33;;;;;;;1.73;1.00;;;24.70;84.10;;;;;;5034748;28;20125;-73
2022/09/13 12:25:06;;;;;;;2.92;1.17;;;24.90;84.10;;;;;;5035824;28;20497;-73
2022/09/13 12:27:44;;;;;;;2.05;1.20;;;24.90;81.80;;;;;;5036078;28;20048;-74
2022/09/13 12:30:18;;;;;;;2.08;1.20;;;25.00;84.00;;;;;;5035795;28;20021;-74
2022/09/13 12:32:46;;;;;;;1.88;1.00;;;25.10;84.90;;;;;;5039679;28;20064;-74
2022/09/13 12:35:25;;;;;;;2.65;1.30;;;25.20;82.00;;;;;;5036541;28;20034;-73
2022/09/13 12:38:21;;;;;;;2.90;1.40;;;25.30;82.80;;;;;;5031721;28;20355;-74
2022/09/13 12:41:11;;;;;;;2.08;1.15;;;25.40;88.30;;;;;;5045084;28;20049;-74
2022/09/13 12:44:01;;;;;;;1.80;1.10;;;25.70;86.40;;;;;;5031036;28;20110;-74
2022/09/13 12:46:51;;;;;;;2.67;1.08;;;25.80;85.00;;;;;;5051514;28;20036;-74
2022/09/13 12:49:41;;;;;;;4.60;1.40;;;26.00;82.20;;;;;;5032591;28;20033;-73
2022/09/13 12:52:38;;;;;;;2.20;1.00;;;26.10;78.80;;;;;;5040339;28;20061;-74
2022/09/13 12:55:22;;;;;;;1.58;0.93;;;26.20;79.20;;;;;;5042611;28;20067;-74
2022/09/13 12:57:51;;;;;;;1.10;0.90;;;26.30;83.40;;;;;;5041070;28;20477;-74
2022/09/13 13:00:29;;;;;;;1.30;0.70;;;26.50;84.10;;;;;;5038565;28;20036;-74
2022/09/13 13:03:10;;;;;;;1.50;0.77;;;26.70;79.90;;;;;;5036212;28;20057;-73
2022/09/13 13:05:38;;;;;;;3.67;0.85;;;26.90;74.80;;;;;;5036199;28;20022;-74
2022/09/13 13:08:20;;;;;;;2.88;0.70;;;27.00;77.90;;;;;;5040782;28;20041;-73
2022/09/13 13:11:13;;;;;;;1.35;0.70;;;27.20;75.60;;;;;;5054033;28;20392;-74
2022/09/13 13:13:43;;;;;;;1.20;0.50;;;27.30;74.10;;;;;;5034907;28;20022;-74
2022/09/13 13:16:28;;;;;;;1.00;0.60;;;27.30;73.10;;;;;;5034764;28;20014;-75
2022/09/13 13:19:02;;;;;;;3.65;0.75;;;27.30;72.80;;;;;;5031272;28;20028;-74
2022/09/13 13:21:32;;;;;;;2.33;0.60;;;27.30;74.30;;;;;;5044695;28;20030;-71
2022/09/13 13:24:17;;;;;;;2.87;1.40;;;27.30;71.10;;;;;;5035015;28;20025;-74